createdAt,value
2023-04-03T00:00:09.437Z,462.00
2023-04-03T00:00:39.437Z,465.00
2023-04-03T00:01:09.481Z,465.00
2023-04-03T00:01:39.464Z,465.00
2023-04-03T00:02:09.492Z,464.00
2023-04-03T00:02:39.576Z,465.00
2023-04-03T00:03:09.524Z,465.00
2023-04-03T00:03:39.564Z,464.00
2023-04-03T00:04:09.583Z,461.00
2023-04-03T00:04:39.760Z,463.00
2023-04-03T00:05:09.721Z,464.00
2023-04-03T00:05:39.740Z,464.00
2023-04-03T00:06:09.737Z,463.00
2023-04-03T00:06:39.747Z,462.00
2023-04-03T00:07:09.761Z,460.00
2023-04-03T00:07:39.760Z,462.00
2023-04-03T00:08:09.780Z,463.00
2023-04-03T00:08:39.780Z,461.00
2023-04-03T00:09:10.649Z,462.00
2023-04-03T00:09:39.874Z,462.00
2023-04-03T00:10:09.867Z,461.00
2023-04-03T00:10:39.972Z,461.00
2023-04-03T00:11:09.983Z,462.00
2023-04-03T00:11:39.974Z,461.00
2023-04-03T00:12:09.980Z,461.00
2023-04-03T00:12:39.994Z,464.00
2023-04-03T00:13:10.002Z,463.00
2023-04-03T00:13:40.020Z,465.00
2023-04-03T00:14:10.018Z,464.00
2023-04-03T00:14:40.046Z,465.00
2023-04-03T00:15:10.045Z,466.00
2023-04-03T00:15:40.063Z,466.00
2023-04-03T00:16:10.074Z,469.00
2023-04-03T00:16:40.100Z,466.00
2023-04-03T00:17:10.216Z,466.00
2023-04-03T00:17:40.186Z,463.00
2023-04-03T00:18:10.222Z,462.00
2023-04-03T00:18:40.201Z,460.00
2023-04-03T00:19:10.195Z,460.00
2023-04-03T00:19:40.199Z,460.00
2023-04-03T00:20:10.206Z,459.00
2023-04-03T00:20:40.220Z,461.00
2023-04-03T00:21:10.218Z,461.00
2023-04-03T00:21:40.245Z,463.00
2023-04-03T00:22:10.236Z,461.00
2023-04-03T00:22:40.244Z,463.00
2023-04-03T00:23:10.249Z,463.00
2023-04-03T00:23:40.253Z,461.00
2023-04-03T00:24:10.259Z,463.00
2023-04-03T00:24:40.394Z,467.00
2023-04-03T00:25:10.277Z,465.00
2023-04-03T00:25:40.289Z,466.00
2023-04-03T00:26:10.308Z,467.00
2023-04-03T00:26:40.312Z,464.00
2023-04-03T00:27:10.319Z,465.00
2023-04-03T00:27:40.340Z,467.00
2023-04-03T00:28:10.323Z,465.00
2023-04-03T00:28:40.318Z,465.00
2023-04-03T00:29:10.371Z,465.00
2023-04-03T00:29:40.363Z,466.00
2023-04-03T00:30:10.392Z,464.00
2023-04-03T00:30:40.452Z,462.00
2023-04-03T00:31:10.520Z,471.00
2023-04-03T00:31:40.549Z,468.00
2023-04-03T00:32:10.556Z,470.00
2023-04-03T00:32:40.625Z,471.00
2023-04-03T00:33:10.645Z,470.00
2023-04-03T00:33:40.685Z,468.00
2023-04-03T00:34:10.694Z,468.00
2023-04-03T00:34:40.698Z,470.00
2023-04-03T00:35:10.714Z,469.00
2023-04-03T00:35:40.891Z,468.00
2023-04-03T00:36:10.917Z,469.00
2023-04-03T00:36:40.895Z,468.00
2023-04-03T00:37:10.816Z,467.00
2023-04-03T00:37:40.817Z,467.00
2023-04-03T00:38:10.827Z,467.00
2023-04-03T00:38:40.833Z,469.00
2023-04-03T00:39:10.857Z,468.00
2023-04-03T00:39:40.851Z,466.00
2023-04-03T00:40:10.847Z,464.00
2023-04-03T00:40:40.853Z,464.00
2023-04-03T00:41:10.953Z,464.00
2023-04-03T00:41:41.038Z,464.00
2023-04-03T00:42:11.132Z,465.00
2023-04-03T00:42:41.214Z,466.00
2023-04-03T00:43:11.301Z,466.00
2023-04-03T00:43:41.396Z,467.00
2023-04-03T00:44:11.480Z,468.00
2023-04-03T00:44:41.794Z,465.00
2023-04-03T00:45:11.652Z,468.00
2023-04-03T00:45:41.737Z,470.00
2023-04-03T00:46:11.914Z,470.00
2023-04-03T00:46:41.910Z,470.00
2023-04-03T00:47:11.970Z,468.00
2023-04-03T00:47:42.089Z,468.00
2023-04-03T00:48:12.073Z,468.00
2023-04-03T00:48:42.152Z,465.00
2023-04-03T00:49:12.261Z,466.00
2023-04-03T00:49:42.319Z,466.00
2023-04-03T00:50:12.422Z,466.00
2023-04-03T00:50:42.501Z,469.00
2023-04-03T00:51:12.609Z,469.00
2023-04-03T00:51:42.619Z,470.00
2023-04-03T00:52:12.622Z,468.00
2023-04-03T00:52:42.632Z,469.00
2023-04-03T00:53:12.655Z,468.00
2023-04-03T00:53:42.646Z,467.00
2023-04-03T00:54:12.665Z,466.00
2023-04-03T00:54:42.661Z,465.00
2023-04-03T00:55:12.674Z,467.00
2023-04-03T00:55:42.669Z,467.00
2023-04-03T00:56:12.689Z,468.00
2023-04-03T00:56:42.683Z,466.00
2023-04-03T00:57:12.731Z,468.00
2023-04-03T00:57:42.753Z,467.00
2023-04-03T00:58:12.769Z,467.00
2023-04-03T00:58:42.764Z,467.00
2023-04-03T00:59:12.790Z,464.00
2023-04-03T00:59:42.777Z,466.00
2023-04-03T01:00:12.795Z,468.00
2023-04-03T01:00:42.793Z,468.00
2023-04-03T01:01:12.886Z,468.00
2023-04-03T01:01:42.858Z,470.00
2023-04-03T01:02:12.862Z,467.00
2023-04-03T01:02:42.923Z,469.00
2023-04-03T01:03:12.921Z,467.00
2023-04-03T01:03:42.922Z,466.00
2023-04-03T01:04:12.939Z,466.00
2023-04-03T01:04:42.998Z,470.00
2023-04-03T01:05:13.034Z,475.00
2023-04-03T01:05:43.044Z,471.00
2023-04-03T01:06:13.044Z,469.00
2023-04-03T01:06:43.046Z,467.00
2023-04-03T01:07:13.060Z,466.00
2023-04-03T01:07:43.065Z,467.00
2023-04-03T01:08:13.070Z,464.00
2023-04-03T01:08:43.081Z,463.00
2023-04-03T01:09:13.074Z,463.00
2023-04-03T01:09:43.092Z,464.00
2023-04-03T01:10:13.090Z,466.00
2023-04-03T01:10:43.105Z,464.00
2023-04-03T01:11:13.111Z,466.00
2023-04-03T01:11:43.117Z,466.00
2023-04-03T01:12:13.130Z,467.00
2023-04-03T01:12:47.193Z,467.00
2023-04-03T01:13:13.214Z,468.00
2023-04-03T01:13:43.222Z,469.00
2023-04-03T01:14:13.215Z,470.00
2023-04-03T01:14:44.987Z,472.00
2023-04-03T01:15:13.226Z,473.00
2023-04-03T01:15:43.257Z,471.00
2023-04-03T01:16:13.324Z,470.00
2023-04-03T01:16:43.369Z,471.00
2023-04-03T01:17:13.380Z,475.00
2023-04-03T01:17:43.429Z,475.00
2023-04-03T01:18:13.382Z,474.00
2023-04-03T01:18:43.385Z,471.00
2023-04-03T01:19:13.398Z,470.00
2023-04-03T01:19:43.403Z,468.00
2023-04-03T01:20:13.445Z,471.00
2023-04-03T01:20:43.461Z,468.00
2023-04-03T01:21:13.486Z,469.00
2023-04-03T01:21:43.488Z,471.00
2023-04-03T01:22:13.491Z,470.00
2023-04-03T01:22:43.506Z,470.00
2023-04-03T01:23:13.522Z,470.00
2023-04-03T01:23:43.517Z,468.00
2023-04-03T01:24:13.530Z,466.00
2023-04-03T01:24:43.550Z,467.00
2023-04-03T01:25:13.555Z,464.00
2023-04-03T01:25:43.558Z,465.00
2023-04-03T01:26:13.578Z,466.00
2023-04-03T01:26:43.627Z,466.00
2023-04-03T01:27:13.620Z,467.00
2023-04-03T01:27:43.629Z,465.00
2023-04-03T01:28:13.653Z,464.00
2023-04-03T01:28:43.649Z,467.00
2023-04-03T01:29:13.657Z,468.00
2023-04-03T01:29:43.660Z,469.00
2023-04-03T01:30:13.671Z,469.00
2023-04-03T01:30:43.712Z,467.00
2023-04-03T01:31:13.738Z,465.00
2023-04-03T01:31:43.764Z,467.00
2023-04-03T01:32:13.764Z,467.00
2023-04-03T01:32:43.791Z,467.00
2023-04-03T01:33:13.790Z,469.00
2023-04-03T01:33:43.809Z,466.00
2023-04-03T01:34:13.811Z,467.00
2023-04-03T01:34:43.817Z,467.00
2023-04-03T01:35:13.842Z,467.00
2023-04-03T01:35:43.884Z,466.00
2023-04-03T01:36:13.900Z,468.00
2023-04-03T01:36:43.930Z,466.00
2023-04-03T01:37:13.900Z,468.00
2023-04-03T01:37:43.917Z,467.00
2023-04-03T01:38:13.918Z,467.00
2023-04-03T01:38:43.957Z,466.00
2023-04-03T01:39:13.943Z,466.00
2023-04-03T01:39:43.953Z,468.00
2023-04-03T01:40:13.959Z,466.00
2023-04-03T01:40:43.979Z,465.00
2023-04-03T01:41:14.048Z,465.00
2023-04-03T01:41:44.136Z,462.00
2023-04-03T01:42:14.216Z,467.00
2023-04-03T01:42:44.300Z,470.00
2023-04-03T01:43:14.388Z,472.00
2023-04-03T01:43:44.464Z,468.00
2023-04-03T01:44:14.565Z,466.00
2023-04-03T01:44:44.633Z,467.00
2023-04-03T01:45:14.736Z,469.00
2023-04-03T01:45:44.894Z,469.00
2023-04-03T01:46:14.936Z,470.00
2023-04-03T01:46:44.902Z,470.00
2023-04-03T01:47:14.983Z,476.00
2023-04-03T01:47:45.142Z,471.00
2023-04-03T01:48:15.133Z,468.00
2023-04-03T01:48:45.222Z,469.00
2023-04-03T01:49:15.317Z,470.00
2023-04-03T01:49:45.528Z,472.00
2023-04-03T01:50:15.497Z,470.00
2023-04-03T01:50:45.568Z,470.00
2023-04-03T01:51:15.605Z,468.00
2023-04-03T01:51:45.586Z,470.00
2023-04-03T01:52:15.593Z,468.00
2023-04-03T01:52:45.597Z,465.00
2023-04-03T01:53:15.593Z,467.00
2023-04-03T01:53:45.607Z,466.00
2023-04-03T01:54:15.609Z,466.00
2023-04-03T01:54:45.620Z,466.00
2023-04-03T01:55:15.617Z,465.00
2023-04-03T01:55:45.627Z,464.00
2023-04-03T01:56:15.631Z,464.00
2023-04-03T01:56:45.638Z,463.00
2023-04-03T01:57:15.649Z,465.00
2023-04-03T01:57:45.661Z,467.00
2023-04-03T01:58:15.652Z,466.00
2023-04-03T01:58:45.663Z,468.00
2023-04-03T01:59:15.676Z,468.00
2023-04-03T01:59:45.689Z,468.00
2023-04-03T02:00:15.690Z,469.00
2023-04-03T02:00:45.714Z,469.00
2023-04-03T02:01:15.738Z,471.00
2023-04-03T02:01:45.751Z,473.00
2023-04-03T02:02:15.753Z,473.00
2023-04-03T02:02:45.800Z,474.00
2023-04-03T02:03:15.797Z,472.00
2023-04-03T02:03:45.822Z,470.00
2023-04-03T02:04:15.859Z,473.00
2023-04-03T02:04:45.872Z,472.00
2023-04-03T02:05:15.875Z,473.00
2023-04-03T02:05:45.881Z,474.00
2023-04-03T02:06:15.940Z,474.00
2023-04-03T02:06:46.003Z,472.00
2023-04-03T02:07:15.984Z,472.00
2023-04-03T02:07:45.982Z,469.00
2023-04-03T02:08:15.998Z,467.00
2023-04-03T02:08:45.992Z,468.00
2023-04-03T02:09:16.005Z,469.00
2023-04-03T02:09:45.998Z,466.00
2023-04-03T02:10:16.009Z,466.00
2023-04-03T02:10:46.014Z,467.00
2023-04-03T02:11:16.023Z,467.00
2023-04-03T02:11:46.054Z,467.00
2023-04-03T02:12:16.050Z,466.00
2023-04-03T02:12:46.056Z,467.00
2023-04-03T02:13:16.059Z,468.00
2023-04-03T02:13:46.071Z,469.00
2023-04-03T02:14:16.092Z,467.00
2023-04-03T02:14:46.088Z,468.00
2023-04-03T02:15:16.087Z,467.00
2023-04-03T02:15:46.094Z,468.00
2023-04-03T02:16:16.134Z,467.00
2023-04-03T02:16:46.185Z,466.00
2023-04-03T02:17:16.192Z,466.00
2023-04-03T02:17:46.231Z,466.00
2023-04-03T02:18:16.260Z,465.00
2023-04-03T02:18:46.264Z,468.00
2023-04-03T02:19:16.262Z,468.00
2023-04-03T02:19:46.268Z,468.00
2023-04-03T02:20:16.265Z,466.00
2023-04-03T02:20:46.268Z,466.00
2023-04-03T02:21:16.281Z,467.00
2023-04-03T02:21:46.322Z,469.00
2023-04-03T02:22:16.327Z,466.00
2023-04-03T02:22:46.310Z,464.00
2023-04-03T02:23:16.306Z,467.00
2023-04-03T02:23:46.337Z,470.00
2023-04-03T02:24:16.330Z,467.00
2023-04-03T02:24:46.332Z,467.00
2023-04-03T02:25:16.347Z,467.00
2023-04-03T02:25:46.350Z,467.00
2023-04-03T02:26:16.358Z,467.00
2023-04-03T02:26:46.380Z,468.00
2023-04-03T02:27:16.378Z,467.00
2023-04-03T02:27:46.381Z,467.00
2023-04-03T02:28:16.385Z,469.00
2023-04-03T02:28:46.382Z,472.00
2023-04-03T02:29:16.407Z,475.00
2023-04-03T02:29:46.412Z,467.00
2023-04-03T02:30:16.417Z,463.00
2023-04-03T02:30:46.477Z,462.00
2023-04-03T02:31:16.487Z,457.00
2023-04-03T02:31:46.542Z,460.00
2023-04-03T02:32:16.564Z,464.00
2023-04-03T02:32:46.599Z,467.00
2023-04-03T02:33:16.624Z,471.00
2023-04-03T02:33:46.630Z,468.00
2023-04-03T02:34:16.632Z,465.00
2023-04-03T02:34:46.630Z,465.00
2023-04-03T02:35:16.640Z,467.00
2023-04-03T02:35:46.669Z,466.00
2023-04-03T02:36:16.663Z,466.00
2023-04-03T02:36:46.676Z,466.00
2023-04-03T02:37:16.679Z,465.00
2023-04-03T02:37:46.701Z,466.00
2023-04-03T02:38:16.691Z,463.00
2023-04-03T02:38:46.709Z,464.00
2023-04-03T02:39:16.718Z,467.00
2023-04-03T02:39:46.720Z,466.00
2023-04-03T02:40:16.727Z,464.00
2023-04-03T02:40:46.717Z,461.00
2023-04-03T02:41:16.821Z,461.00
2023-04-03T02:41:46.898Z,461.00
2023-04-03T02:42:16.986Z,462.00
2023-04-03T02:42:47.070Z,464.00
2023-04-03T02:43:17.163Z,465.00
2023-04-03T02:43:47.258Z,466.00
2023-04-03T02:44:17.334Z,465.00
2023-04-03T02:44:47.414Z,465.00
2023-04-03T02:45:17.519Z,465.00
2023-04-03T02:45:47.632Z,468.00
2023-04-03T02:46:17.628Z,465.00
2023-04-03T02:46:47.597Z,465.00
2023-04-03T02:47:17.679Z,463.00
2023-04-03T02:47:47.776Z,463.00
2023-04-03T02:48:17.881Z,463.00
2023-04-03T02:48:47.944Z,464.00
2023-04-03T02:49:18.037Z,464.00
2023-04-03T02:49:48.129Z,462.00
2023-04-03T02:50:18.215Z,462.00
2023-04-03T02:50:48.299Z,463.00
2023-04-03T02:51:18.298Z,463.00
2023-04-03T02:51:48.307Z,463.00
2023-04-03T02:52:18.314Z,464.00
2023-04-03T02:52:48.330Z,464.00
2023-04-03T02:53:18.353Z,463.00
2023-04-03T02:53:48.337Z,465.00
2023-04-03T02:54:18.346Z,464.00
2023-04-03T02:54:48.365Z,465.00
2023-04-03T02:55:18.400Z,465.00
2023-04-03T02:55:48.403Z,463.00
2023-04-03T02:56:18.442Z,466.00
2023-04-03T02:56:48.487Z,466.00
2023-04-03T02:57:18.529Z,467.00
2023-04-03T02:57:48.508Z,467.00
2023-04-03T02:58:18.509Z,465.00
2023-04-03T02:58:48.540Z,465.00
2023-04-03T02:59:18.540Z,467.00
2023-04-03T02:59:48.548Z,468.00
2023-04-03T03:00:18.568Z,467.00
2023-04-03T03:00:48.572Z,464.00
2023-04-03T03:01:18.575Z,467.00
2023-04-03T03:01:48.626Z,466.00
2023-04-03T03:02:18.629Z,466.00
2023-04-03T03:02:48.677Z,465.00
2023-04-03T03:03:18.682Z,467.00
2023-04-03T03:03:48.692Z,465.00
2023-04-03T03:04:18.711Z,464.00
2023-04-03T03:04:48.758Z,463.00
2023-04-03T03:05:18.842Z,462.00
2023-04-03T03:05:48.780Z,463.00
2023-04-03T03:06:18.776Z,466.00
2023-04-03T03:06:48.796Z,464.00
2023-04-03T03:07:57.902Z,487.00
2023-04-03T03:08:27.965Z,483.00
2023-04-03T03:08:57.985Z,478.00
2023-04-03T03:09:28.021Z,474.00
2023-04-03T03:09:58.070Z,475.00
2023-04-03T03:10:28.115Z,475.00
2023-04-03T03:10:58.162Z,475.00
2023-04-03T03:11:28.208Z,473.00
2023-04-03T03:11:58.240Z,474.00
2023-04-03T03:12:28.277Z,479.00
2023-04-03T03:12:58.320Z,473.00
2023-04-03T03:13:28.366Z,469.00
2023-04-03T03:13:58.420Z,469.00
2023-04-03T03:14:28.439Z,467.00
2023-04-03T03:14:58.485Z,469.00
2023-04-03T03:15:28.561Z,470.00
2023-04-03T03:15:58.622Z,472.00
2023-04-03T03:16:28.908Z,474.00
2023-04-03T03:16:58.747Z,469.00
2023-04-03T03:17:28.801Z,470.00
2023-04-03T03:17:58.964Z,472.00
2023-04-03T03:18:28.968Z,471.00
2023-04-03T03:18:59.167Z,474.00
2023-04-03T03:19:29.110Z,473.00
2023-04-03T03:19:59.191Z,470.00
2023-04-03T03:20:29.272Z,471.00
2023-04-03T03:20:59.363Z,468.00
2023-04-03T03:21:29.434Z,471.00
2023-04-03T03:21:59.512Z,470.00
2023-04-03T03:22:31.655Z,475.00
2023-04-03T03:22:59.652Z,468.00
2023-04-03T03:23:29.735Z,463.00
2023-04-03T03:23:59.846Z,470.00
2023-04-03T03:24:29.902Z,469.00
2023-04-03T03:24:59.995Z,469.00
2023-04-03T03:25:30.080Z,467.00
2023-04-03T03:26:00.168Z,470.00
2023-04-03T03:26:30.264Z,471.00
2023-04-03T03:27:00.330Z,472.00
2023-04-03T03:27:30.400Z,471.00
2023-04-03T03:28:00.487Z,471.00
2023-04-03T03:28:30.585Z,471.00
2023-04-03T03:29:00.660Z,469.00
2023-04-03T03:29:30.732Z,472.00
2023-04-03T03:30:00.810Z,470.00
2023-04-03T03:30:30.900Z,471.00
2023-04-03T03:31:01.002Z,471.00
2023-04-03T03:31:31.080Z,472.00
2023-04-03T03:32:01.141Z,471.00
2023-04-03T03:32:31.230Z,468.00
2023-04-03T03:33:01.450Z,467.00
2023-04-03T03:33:31.348Z,469.00
2023-04-03T03:34:01.404Z,467.00
2023-04-03T03:34:31.482Z,469.00
2023-04-03T03:35:01.578Z,471.00
2023-04-03T03:35:31.671Z,470.00
2023-04-03T03:36:01.773Z,469.00
2023-04-03T03:36:31.740Z,469.00
2023-04-03T03:37:01.829Z,469.00
2023-04-03T03:37:31.907Z,470.00
2023-04-03T03:38:01.982Z,470.00
2023-04-03T03:38:32.078Z,469.00
2023-04-03T03:39:02.175Z,470.00
2023-04-03T03:39:32.177Z,471.00
2023-04-03T03:40:02.247Z,470.00
2023-04-03T03:40:32.328Z,472.00
2023-04-03T03:41:02.436Z,470.00
2023-04-03T03:41:32.511Z,471.00
2023-04-03T03:42:02.587Z,471.00
2023-04-03T03:42:32.663Z,471.00
2023-04-03T03:43:02.774Z,470.00
2023-04-03T03:43:32.861Z,469.00
2023-04-03T03:44:02.942Z,469.00
2023-04-03T03:44:33.033Z,472.00
2023-04-03T03:45:03.121Z,471.00
2023-04-03T03:45:33.210Z,470.00
2023-04-03T03:46:03.283Z,469.00
2023-04-03T03:46:33.379Z,465.00
2023-04-03T03:47:03.449Z,467.00
2023-04-03T03:47:33.556Z,463.00
2023-04-03T03:48:03.633Z,466.00
2023-04-03T03:48:33.711Z,467.00
2023-04-03T03:49:03.805Z,467.00
2023-04-03T03:49:33.897Z,466.00
2023-04-03T03:50:03.980Z,468.00
2023-04-03T03:50:34.061Z,460.00
2023-04-03T03:51:04.148Z,463.00
2023-04-03T03:51:34.225Z,461.00
2023-04-03T03:52:04.311Z,461.00
2023-04-03T03:52:34.391Z,462.00
2023-04-03T03:53:04.466Z,463.00
2023-04-03T03:53:34.567Z,462.00
2023-04-03T03:54:04.655Z,464.00
2023-04-03T03:54:34.723Z,468.00
2023-04-03T03:55:04.785Z,468.00
2023-04-03T03:55:35.064Z,463.00
2023-04-03T03:56:04.958Z,461.00
2023-04-03T03:56:35.043Z,462.00
2023-04-03T03:57:05.158Z,462.00
2023-04-03T03:57:35.193Z,462.00
2023-04-03T03:58:05.188Z,458.00
2023-04-03T03:58:35.272Z,462.00
2023-04-03T03:59:05.371Z,467.00
2023-04-03T03:59:35.454Z,463.00
2023-04-03T04:00:05.421Z,465.00
2023-04-03T04:00:35.510Z,469.00
2023-04-03T04:01:05.594Z,468.00
2023-04-03T04:01:35.700Z,469.00
2023-04-03T04:02:05.840Z,464.00
2023-04-03T04:02:35.933Z,463.00
2023-04-03T04:03:05.922Z,465.00
2023-04-03T04:03:36.005Z,466.00
2023-04-03T04:04:06.042Z,465.00
2023-04-03T04:04:36.014Z,485.00
2023-04-03T04:05:06.114Z,473.00
2023-04-03T04:05:36.528Z,465.00
2023-04-03T04:06:06.238Z,468.00
2023-04-03T04:06:36.311Z,465.00
2023-04-03T04:07:06.396Z,468.00
2023-04-03T04:07:36.479Z,476.00
2023-04-03T04:08:06.499Z,472.00
2023-04-03T04:08:36.544Z,469.00
2023-04-03T04:09:06.588Z,469.00
2023-04-03T04:09:36.656Z,471.00
2023-04-03T04:10:06.693Z,469.00
2023-04-03T04:10:36.709Z,473.00
2023-04-03T04:11:06.756Z,472.00
2023-04-03T04:11:36.784Z,474.00
2023-04-03T04:12:06.822Z,475.00
2023-04-03T04:12:36.896Z,475.00
2023-04-03T04:13:06.944Z,476.00
2023-04-03T04:13:36.964Z,476.00
2023-04-03T04:14:07.000Z,477.00
2023-04-03T04:14:37.055Z,486.00
2023-04-03T04:15:07.084Z,490.00
2023-04-03T04:15:37.494Z,496.00
2023-04-03T04:16:07.209Z,496.00
2023-04-03T04:16:37.242Z,499.00
2023-04-03T04:17:07.310Z,493.00
2023-04-03T04:17:37.393Z,494.00
2023-04-03T04:18:07.448Z,507.00
2023-04-03T04:18:37.534Z,505.00
2023-04-03T04:19:08.954Z,507.00
2023-04-03T04:19:37.640Z,506.00
2023-04-03T04:20:07.641Z,504.00
2023-04-03T04:20:37.731Z,504.00
2023-04-03T04:21:07.795Z,504.00
2023-04-03T04:21:37.903Z,506.00
2023-04-03T04:22:07.970Z,505.00
2023-04-03T04:22:38.056Z,506.00
2023-04-03T04:23:08.137Z,511.00
2023-04-03T04:23:38.224Z,512.00
2023-04-03T04:24:08.308Z,514.00
2023-04-03T04:24:39.740Z,515.00
2023-04-03T04:25:08.418Z,518.00
2023-04-03T04:25:38.760Z,518.00
2023-04-03T04:26:08.564Z,523.00
2023-04-03T04:26:38.657Z,526.00
2023-04-03T04:27:08.739Z,528.00
2023-04-03T04:27:38.827Z,529.00
2023-04-03T04:28:08.905Z,530.00
2023-04-03T04:28:38.991Z,532.00
2023-04-03T04:29:09.079Z,535.00
2023-04-03T04:29:39.190Z,533.00
2023-04-03T04:30:09.260Z,532.00
2023-04-03T04:30:39.362Z,533.00
2023-04-03T04:31:09.418Z,533.00
2023-04-03T04:31:39.353Z,534.00
2023-04-03T04:32:09.419Z,535.00
2023-04-03T04:32:39.561Z,534.00
2023-04-03T04:33:09.582Z,533.00
2023-04-03T04:33:39.588Z,535.00
2023-04-03T04:34:09.670Z,535.00
2023-04-03T04:34:39.778Z,536.00
2023-04-03T04:35:09.874Z,539.00
2023-04-03T04:35:40.314Z,538.00
2023-04-03T04:36:10.123Z,540.00
2023-04-03T04:36:40.191Z,539.00
2023-04-03T04:37:10.204Z,540.00
2023-04-03T04:37:40.284Z,539.00
2023-04-03T04:38:10.367Z,539.00
2023-04-03T04:38:40.454Z,539.00
2023-04-03T04:39:10.542Z,540.00
2023-04-03T04:39:40.612Z,544.00
2023-04-03T04:40:10.717Z,546.00
2023-04-03T04:40:40.774Z,546.00
2023-04-03T04:41:10.856Z,545.00
2023-04-03T04:41:40.933Z,546.00
2023-04-03T04:42:11.011Z,545.00
2023-04-03T04:42:41.100Z,546.00
2023-04-03T04:43:11.195Z,549.00
2023-04-03T04:43:41.278Z,550.00
2023-04-03T04:44:11.362Z,551.00
2023-04-03T04:44:41.439Z,550.00
2023-04-03T04:45:11.524Z,551.00
2023-04-03T04:45:41.601Z,557.00
2023-04-03T04:46:11.714Z,569.00
2023-04-03T04:46:41.749Z,583.00
2023-04-03T04:47:11.726Z,600.00
2023-04-03T04:47:41.851Z,606.00
2023-04-03T04:48:11.844Z,603.00
2023-04-03T04:48:41.925Z,605.00
2023-04-03T04:49:12.010Z,606.00
2023-04-03T04:49:42.095Z,605.00
2023-04-03T04:50:12.180Z,605.00
2023-04-03T04:50:42.272Z,601.00
2023-04-03T04:51:12.349Z,600.00
2023-04-03T04:51:51.674Z,600.00
2023-04-03T04:52:12.556Z,602.00
2023-04-03T04:52:42.541Z,602.00
2023-04-03T04:53:12.616Z,605.00
2023-04-03T04:53:42.693Z,606.00
2023-04-03T04:54:12.777Z,608.00
2023-04-03T04:54:42.866Z,613.00
2023-04-03T04:55:12.963Z,615.00
2023-04-03T04:55:43.070Z,614.00
2023-04-03T04:56:13.134Z,618.00
2023-04-03T04:56:43.225Z,617.00
2023-04-03T04:57:13.340Z,616.00
2023-04-03T04:57:43.346Z,623.00
2023-04-03T04:58:13.443Z,623.00
2023-04-03T04:58:43.526Z,623.00
2023-04-03T04:59:13.632Z,627.00
2023-04-03T04:59:43.711Z,630.00
2023-04-03T05:00:13.810Z,636.00
2023-04-03T05:00:43.887Z,632.00
2023-04-03T05:01:14.056Z,619.00
2023-04-03T05:01:44.099Z,636.00
2023-04-03T05:02:14.098Z,634.00
2023-04-03T05:02:44.179Z,646.00
2023-04-03T05:03:14.182Z,645.00
2023-04-03T05:03:44.273Z,647.00
2023-04-03T05:04:14.376Z,652.00
2023-04-03T05:04:44.511Z,653.00
2023-04-03T05:05:14.498Z,647.00
2023-04-03T05:05:44.462Z,644.00
2023-04-03T05:06:14.564Z,649.00
2023-04-03T05:06:44.618Z,649.00
2023-04-03T05:07:14.708Z,649.00
2023-04-03T05:07:44.772Z,654.00
2023-04-03T05:08:14.816Z,653.00
2023-04-03T05:08:44.849Z,657.00
2023-04-03T05:09:14.892Z,661.00
2023-04-03T05:09:44.924Z,664.00
2023-04-03T05:10:14.974Z,655.00
2023-04-03T05:10:45.038Z,656.00
2023-04-03T05:11:15.038Z,656.00
2023-04-03T05:11:45.089Z,658.00
2023-04-03T05:12:15.139Z,661.00
2023-04-03T05:12:45.178Z,662.00
2023-04-03T05:13:15.231Z,663.00
2023-04-03T05:13:45.268Z,664.00
2023-04-03T05:14:15.302Z,665.00
2023-04-03T05:14:45.344Z,662.00
2023-04-03T05:15:15.412Z,665.00
2023-04-03T05:15:45.481Z,667.00
2023-04-03T05:16:15.542Z,667.00
2023-04-03T05:16:45.512Z,665.00
2023-04-03T05:17:15.543Z,666.00
2023-04-03T05:17:45.662Z,663.00
2023-04-03T05:18:15.651Z,662.00
2023-04-03T05:18:45.733Z,662.00
2023-04-03T05:19:15.817Z,665.00
2023-04-03T05:19:45.905Z,667.00
2023-04-03T05:20:15.997Z,667.00
2023-04-03T05:20:46.072Z,667.00
2023-04-03T05:21:16.154Z,667.00
2023-04-03T05:21:46.243Z,666.00
2023-04-03T05:22:16.327Z,667.00
2023-04-03T05:22:46.404Z,672.00
2023-04-03T05:23:16.490Z,672.00
2023-04-03T05:23:46.568Z,672.00
2023-04-03T05:24:16.657Z,679.00
2023-04-03T05:24:46.749Z,682.00
2023-04-03T05:25:16.826Z,681.00
2023-04-03T05:25:46.906Z,687.00
2023-04-03T05:26:17.017Z,684.00
2023-04-03T05:26:47.083Z,689.00
2023-04-03T05:27:17.166Z,691.00
2023-04-03T05:27:47.246Z,691.00
2023-04-03T05:28:17.350Z,689.00
2023-04-03T05:28:47.428Z,691.00
2023-04-03T05:29:17.512Z,693.00
2023-04-03T05:29:47.591Z,696.00
2023-04-03T05:30:17.662Z,696.00
2023-04-03T05:30:47.753Z,695.00
2023-04-03T05:31:17.855Z,694.00
2023-04-03T05:31:47.963Z,693.00
2023-04-03T05:32:17.927Z,688.00
2023-04-03T05:32:48.063Z,690.00
2023-04-03T05:33:18.055Z,727.00
2023-04-03T05:33:48.150Z,706.00
2023-04-03T05:34:18.248Z,709.00
2023-04-03T05:34:48.292Z,708.00
2023-04-03T05:35:18.373Z,707.00
2023-04-03T05:35:48.471Z,706.00
2023-04-03T05:36:18.537Z,707.00
2023-04-03T05:36:48.500Z,707.00
2023-04-03T05:37:18.459Z,705.00
2023-04-03T05:37:48.499Z,705.00
2023-04-03T05:38:18.510Z,713.00
2023-04-03T05:38:48.609Z,708.00
2023-04-03T05:39:18.664Z,717.00
2023-04-03T05:39:48.732Z,717.00
2023-04-03T05:40:18.813Z,718.00
2023-04-03T05:40:48.886Z,715.00
2023-04-03T05:41:18.971Z,715.00
2023-04-03T05:41:49.082Z,705.00
2023-04-03T05:42:19.130Z,719.00
2023-04-03T05:42:49.210Z,723.00
2023-04-03T05:43:19.299Z,713.00
2023-04-03T05:43:49.383Z,721.00
2023-04-03T05:44:19.456Z,732.00
2023-04-03T05:44:49.542Z,728.00
2023-04-03T05:45:19.626Z,721.00
2023-04-03T05:45:49.737Z,717.00
2023-04-03T05:46:19.934Z,717.00
2023-04-03T05:46:49.862Z,723.00
2023-04-03T05:47:19.939Z,722.00
2023-04-03T05:47:50.088Z,724.00
2023-04-03T05:48:20.068Z,725.00
2023-04-03T05:48:50.151Z,726.00
2023-04-03T05:49:20.231Z,724.00
2023-04-03T05:49:50.343Z,720.00
2023-04-03T05:50:20.413Z,725.00
2023-04-03T05:50:50.488Z,733.00
2023-04-03T05:51:20.563Z,735.00
2023-04-03T05:51:50.679Z,735.00
2023-04-03T05:52:20.749Z,739.00
2023-04-03T05:52:50.831Z,741.00
2023-04-03T05:53:20.935Z,743.00
2023-04-03T05:53:51.013Z,743.00
2023-04-03T05:54:21.099Z,746.00
2023-04-03T05:54:51.098Z,747.00
2023-04-03T05:55:21.156Z,752.00
2023-04-03T05:55:51.245Z,745.00
2023-04-03T05:56:21.331Z,748.00
2023-04-03T05:56:51.457Z,736.00
2023-04-03T05:57:21.520Z,739.00
2023-04-03T05:57:51.505Z,748.00
2023-04-03T05:58:21.595Z,759.00
2023-04-03T05:58:51.681Z,755.00
2023-04-03T05:59:21.778Z,757.00
2023-04-03T05:59:51.862Z,760.00
2023-04-03T06:00:21.931Z,752.00
2023-04-03T06:00:52.012Z,749.00
2023-04-03T06:01:22.109Z,753.00
2023-04-03T06:01:52.199Z,752.00
2023-04-03T06:02:22.341Z,751.00
2023-04-03T06:02:52.494Z,748.00
2023-04-03T06:03:22.479Z,750.00
2023-04-03T06:03:52.650Z,746.00
2023-04-03T06:04:22.619Z,743.00
2023-04-03T06:04:53.035Z,746.00
2023-04-03T06:05:22.671Z,760.00
2023-04-03T06:05:52.764Z,767.00
2023-04-03T06:06:22.836Z,763.00
2023-04-03T06:06:52.924Z,762.00
2023-04-03T06:07:22.995Z,759.00
2023-04-03T06:07:53.045Z,761.00
2023-04-03T06:08:23.132Z,758.00
2023-04-03T06:08:53.155Z,758.00
2023-04-03T06:09:23.198Z,764.00
2023-04-03T06:09:53.225Z,766.00
2023-04-03T06:10:23.284Z,765.00
2023-04-03T06:10:53.321Z,765.00
2023-04-03T06:11:23.370Z,768.00
2023-04-03T06:11:53.426Z,761.00
2023-04-03T06:12:23.490Z,769.00
2023-04-03T06:12:53.508Z,771.00
2023-04-03T06:13:23.592Z,778.00
2023-04-03T06:13:53.615Z,771.00
2023-04-03T06:14:23.683Z,773.00
2023-04-03T06:14:53.726Z,775.00
2023-04-03T06:15:23.779Z,778.00